createdAt,value
2016-06-18T00:00:42.786Z,1000.94
2016-06-18T00:01:42.819Z,1000.93
2016-06-18T00:02:42.840Z,1000.91
2016-06-18T00:03:42.858Z,1000.93
2016-06-18T00:04:42.893Z,1000.89
2016-06-18T00:05:42.911Z,1000.96
2016-06-18T00:06:42.947Z,1000.97
2016-06-18T00:07:42.965Z,1000.97
2016-06-18T00:08:42.985Z,1000.96
2016-06-18T00:09:43.019Z,1000.96
2016-06-18T00:10:43.039Z,1001.05
2016-06-18T00:11:43.058Z,1001
2016-06-18T00:12:43.093Z,1000.98
2016-06-18T00:13:43.112Z,1001.01
2016-06-18T00:14:43.131Z,1001.04
2016-06-18T00:15:43.165Z,1001.02
2016-06-18T00:16:43.184Z,1001.05
2016-06-18T00:17:43.203Z,1001.06
2016-06-18T00:18:43.238Z,1001.02
2016-06-18T00:19:43.257Z,1001.03
2016-06-18T00:20:43.276Z,1001.05
2016-06-18T00:21:43.311Z,1001
2016-06-18T00:22:43.331Z,1001.05
2016-06-18T00:23:43.365Z,1001.07
2016-06-18T00:24:43.385Z,1001.08
2016-06-18T00:25:43.403Z,1001.04
2016-06-18T00:26:43.422Z,1001.1
2016-06-18T00:27:43.457Z,1001.09
2016-06-18T00:28:43.476Z,1001.03
2016-06-18T00:29:43.495Z,1001.07
2016-06-18T00:30:43.530Z,1001.04
2016-06-18T00:31:43.548Z,1001.07
2016-06-18T00:32:43.569Z,1001.08
2016-06-18T00:33:43.602Z,1001.07
2016-06-18T00:34:43.622Z,1001.06
2016-06-18T00:35:43.640Z,1001.04
2016-06-18T00:36:43.676Z,1001.07
2016-06-18T00:37:43.695Z,1001.05
2016-06-18T00:38:43.714Z,1001.01
2016-06-18T00:39:43.748Z,1001.03
2016-06-18T00:40:43.768Z,1001.02
2016-06-18T00:41:43.786Z,1001.06
2016-06-18T00:42:43.822Z,1001.05
2016-06-18T00:43:43.841Z,1001.04
2016-06-18T00:44:43.860Z,1001.07
2016-06-18T00:45:43.894Z,1001.06
2016-06-18T00:46:43.913Z,1001.1
2016-06-18T00:47:43.932Z,1001.08
2016-06-18T00:48:43.967Z,1001.09
2016-06-18T00:49:43.986Z,1001.06
2016-06-18T00:50:44.005Z,1001.02
2016-06-18T00:51:44.039Z,1001.04
2016-06-18T00:52:44.060Z,1001.09
2016-06-18T00:53:44.094Z,1001.1
2016-06-18T00:54:44.113Z,1001.13
2016-06-18T00:55:44.132Z,1001.11
2016-06-18T00:56:44.167Z,1001.12
2016-06-18T00:57:44.186Z,1001.1
2016-06-18T00:58:44.205Z,1001.11
2016-06-18T00:59:44.224Z,1001.1
2016-06-18T01:00:44.259Z,1001.11
2016-06-18T01:01:44.278Z,1001.16
2016-06-18T01:02:44.297Z,1001.12
2016-06-18T01:03:44.331Z,1001.14
2016-06-18T01:04:44.351Z,1001.13
2016-06-18T01:05:44.369Z,1001.12
2016-06-18T01:06:44.405Z,1001.16
2016-06-18T01:07:44.423Z,1001.16
2016-06-18T01:08:44.443Z,1001.1
2016-06-18T01:09:44.477Z,1001.12
2016-06-18T01:10:44.496Z,1001.13
2016-06-18T01:11:44.515Z,1001.17
2016-06-18T01:12:44.551Z,1001.17
2016-06-18T01:13:44.569Z,1001.19
2016-06-18T01:14:44.589Z,1001.2
2016-06-18T01:15:44.623Z,1001.19
2016-06-18T01:16:44.642Z,1001.24
2016-06-18T01:17:44.661Z,1001.23
2016-06-18T01:18:44.696Z,1001.23
2016-06-18T01:19:44.715Z,1001.3
2016-06-18T01:20:44.734Z,1001.32
2016-06-18T01:21:44.769Z,1001.3
2016-06-18T01:22:44.788Z,1001.39
2016-06-18T01:23:44.806Z,1001.36
2016-06-18T01:24:44.843Z,1001.37
2016-06-18T01:25:44.860Z,1001.39
2016-06-18T01:26:44.880Z,1001.37
2016-06-18T01:27:44.900Z,1001.38
2016-06-18T01:28:44.934Z,1001.4
2016-06-18T01:29:44.952Z,1001.38
2016-06-18T01:30:44.972Z,1001.35
2016-06-18T01:31:45.007Z,1001.39
2016-06-18T01:32:45.026Z,1001.39
2016-06-18T01:33:45.061Z,1001.38
2016-06-18T01:34:45.080Z,1001.36
2016-06-18T01:35:45.098Z,1001.39
2016-06-18T01:36:45.117Z,1001.43
2016-06-18T01:37:45.152Z,1001.45
2016-06-18T01:38:45.172Z,1001.46
2016-06-18T01:39:45.191Z,1001.44
2016-06-18T01:40:45.226Z,1001.49
2016-06-18T01:41:45.244Z,1001.49
2016-06-18T01:42:45.264Z,1001.57
2016-06-18T01:43:45.298Z,1001.51
2016-06-18T01:44:45.317Z,1001.53
2016-06-18T01:45:45.337Z,1001.51
2016-06-18T01:46:45.372Z,1001.53
2016-06-18T01:47:45.390Z,1001.5
2016-06-18T01:48:45.409Z,1001.51
2016-06-18T01:49:45.429Z,1001.49
2016-06-18T01:50:45.464Z,1001.48
2016-06-18T01:51:45.482Z,1001.46
2016-06-18T01:52:45.501Z,1001.51
2016-06-18T01:53:45.536Z,1001.49
2016-06-18T01:54:45.558Z,1001.52
2016-06-18T01:55:45.580Z,1001.51
2016-06-18T01:56:45.617Z,1001.52
2016-06-18T01:57:45.640Z,1001.52
2016-06-18T01:58:45.662Z,1001.54
2016-06-18T01:59:45.698Z,1001.54
2016-06-18T02:00:45.718Z,1001.55
2016-06-18T02:01:45.739Z,1001.58
2016-06-18T02:02:45.775Z,1001.59
2016-06-18T02:03:45.795Z,1001.56
2016-06-18T02:04:45.814Z,1001.6
2016-06-18T02:05:45.834Z,1001.6
2016-06-18T02:06:45.869Z,1001.6
2016-06-18T02:07:45.889Z,1001.55
2016-06-18T02:08:45.924Z,1001.57
2016-06-18T02:09:45.944Z,1001.6
2016-06-18T02:10:45.962Z,1001.63
2016-06-18T02:11:45.982Z,1001.63
2016-06-18T02:12:46.017Z,1001.64
2016-06-18T02:13:46.037Z,1001.6
2016-06-18T02:14:46.055Z,1001.63
2016-06-18T02:15:46.091Z,1001.62
2016-06-18T02:16:46.109Z,1001.62
2016-06-18T02:17:46.129Z,1001.59
2016-06-18T02:18:46.163Z,1001.58
2016-06-18T02:19:46.182Z,1001.61
2016-06-18T02:20:46.201Z,1001.58
2016-06-18T02:21:46.220Z,1001.58
2016-06-18T02:22:46.255Z,1001.56
2016-06-18T02:23:46.274Z,1001.58
2016-06-18T02:24:46.293Z,1001.59
2016-06-18T02:25:46.328Z,1001.62
2016-06-18T02:26:46.347Z,1001.62
2016-06-18T02:27:46.366Z,1001.65
2016-06-18T02:28:46.400Z,1001.62
2016-06-18T02:29:46.420Z,1001.6
2016-06-18T02:30:46.439Z,1001.65
2016-06-18T02:31:46.458Z,1001.62
2016-06-18T02:32:46.493Z,1001.61
2016-06-18T02:33:46.512Z,1001.59
2016-06-18T02:34:46.531Z,1001.62
2016-06-18T02:35:46.566Z,1001.63
2016-06-18T02:36:46.585Z,1001.65
2016-06-18T02:37:46.603Z,1001.63
2016-06-18T02:38:46.623Z,1001.64
2016-06-18T02:39:46.658Z,1001.64
2016-06-18T02:40:46.678Z,1001.67
2016-06-18T02:41:46.695Z,1001.64
2016-06-18T02:42:46.730Z,1001.69
2016-06-18T02:43:46.874Z,1001.69
2016-06-18T02:44:46.878Z,1001.71
2016-06-18T02:45:46.882Z,1001.74
2016-06-18T02:46:46.915Z,1001.72
2016-06-18T02:47:46.935Z,1001.73
2016-06-18T02:48:46.939Z,1001.7
2016-06-18T02:49:46.943Z,1001.74
2016-06-18T02:50:46.945Z,1001.72
2016-06-18T02:51:46.965Z,1001.75
2016-06-18T02:52:46.969Z,1001.72
2016-06-18T02:53:47.112Z,1001.72
2016-06-18T02:54:47.115Z,1001.74
2016-06-18T02:55:47.041Z,1001.71
2016-06-18T02:56:47.060Z,1001.75
2016-06-18T02:57:47.173Z,1001.73
2016-06-18T02:58:47.177Z,1001.74
2016-06-18T02:59:47.211Z,1001.71
2016-06-18T03:00:47.230Z,1001.74
2016-06-18T03:01:47.234Z,1001.75
2016-06-18T03:02:47.253Z,1001.73
2016-06-18T03:03:47.241Z,1001.8
2016-06-18T03:04:47.260Z,1001.81
2016-06-18T03:05:47.263Z,1001.8
2016-06-18T03:06:47.298Z,1001.83
2016-06-18T03:07:47.317Z,1001.83
2016-06-18T03:08:47.336Z,1001.84
2016-06-18T03:09:47.370Z,1001.84
2016-06-18T03:10:47.390Z,1001.83
2016-06-18T03:11:47.409Z,1001.86
2016-06-18T03:12:47.444Z,1001.88
2016-06-18T03:13:47.462Z,1001.77
2016-06-18T03:14:47.481Z,1001.8
2016-06-18T03:15:47.501Z,1001.82
2016-06-18T03:16:47.536Z,1001.82
2016-06-18T03:17:47.555Z,1001.85
2016-06-18T03:18:47.574Z,1001.84
2016-06-18T03:19:47.608Z,1001.86
2016-06-18T03:20:47.658Z,1001.81
2016-06-18T03:21:47.647Z,1001.86
2016-06-18T03:22:47.666Z,1001.86
2016-06-18T03:23:47.700Z,1001.88
2016-06-18T03:24:47.719Z,1001.86
2016-06-18T03:25:47.739Z,1001.87
2016-06-18T03:26:47.773Z,1001.83
2016-06-18T03:27:47.792Z,1001.84
2016-06-18T03:28:47.811Z,1001.82
2016-06-18T03:29:47.830Z,1001.83
2016-06-18T03:30:47.865Z,1001.85
2016-06-18T03:31:47.885Z,1001.91
2016-06-18T03:32:47.902Z,1001.87
2016-06-18T03:33:47.938Z,1001.93
2016-06-18T03:34:47.957Z,1001.91
2016-06-18T03:35:47.977Z,1001.93
2016-06-18T03:36:47.995Z,1001.95
2016-06-18T03:37:48.030Z,1001.94
2016-06-18T03:38:48.049Z,1001.94
2016-06-18T03:39:48.068Z,1001.93
2016-06-18T03:40:48.103Z,1001.91
2016-06-18T03:41:48.122Z,1001.96
2016-06-18T03:42:48.172Z,1001.94
2016-06-18T03:43:48.160Z,1001.98
2016-06-18T03:44:48.195Z,1001.98
2016-06-18T03:45:48.214Z,1001.97
2016-06-18T03:46:48.233Z,1002.02
2016-06-18T03:47:48.268Z,1002.01
2016-06-18T03:48:48.287Z,1002.04
2016-06-18T03:49:48.306Z,1002.03
2016-06-18T03:50:48.325Z,1002.04
2016-06-18T03:51:48.360Z,1002.07
2016-06-18T03:52:48.379Z,1002.07
2016-06-18T03:53:48.398Z,1002.07
2016-06-18T03:54:48.417Z,1002.12
2016-06-18T03:55:48.451Z,1002.12
2016-06-18T03:56:48.471Z,1002.11
2016-06-18T03:57:48.489Z,1002.12
2016-06-18T03:58:48.525Z,1002.13
2016-06-18T03:59:48.543Z,1002.11
2016-06-18T04:00:48.563Z,1002.13
2016-06-18T04:01:48.582Z,1002.11
2016-06-18T04:02:48.617Z,1002.13
2016-06-18T04:03:48.635Z,1002.1
2016-06-18T04:04:48.655Z,1002.1
2016-06-18T04:05:48.689Z,1002.13
2016-06-18T04:06:48.708Z,1002.1
2016-06-18T04:07:48.728Z,1002.11
2016-06-18T04:08:48.747Z,1002.16
2016-06-18T04:09:48.781Z,1002.11
2016-06-18T04:10:48.802Z,1002.09
2016-06-18T04:11:48.828Z,1002.13
2016-06-18T04:12:48.869Z,1002.08
2016-06-18T04:13:48.895Z,1002.1
2016-06-18T04:14:48.918Z,1002.06
2016-06-18T04:15:48.943Z,1002.13
2016-06-18T04:16:48.980Z,1002.11
2016-06-18T04:17:49.002Z,1002.13
2016-06-18T04:18:49.022Z,1002.18
2016-06-18T04:19:49.075Z,1002.15
2016-06-18T04:20:49.080Z,1002.14
2016-06-18T04:21:49.101Z,1002.13
2016-06-18T04:22:49.119Z,1002.09
2016-06-18T04:23:49.141Z,1002.13
2016-06-18T04:24:49.175Z,1002.09
2016-06-18T04:25:49.195Z,1002.11
2016-06-18T04:26:49.230Z,1002.11
2016-06-18T04:27:49.251Z,1002.09
2016-06-18T04:28:49.269Z,1002.1
2016-06-18T04:29:49.289Z,1002.12
2016-06-18T04:30:49.324Z,1002.12
2016-06-18T04:31:49.343Z,1002.12
2016-06-18T04:32:49.362Z,1002.08
2016-06-18T04:33:49.381Z,1002.1
2016-06-18T04:34:49.415Z,1002.12
2016-06-18T04:35:49.435Z,1002.1
2016-06-18T04:36:49.455Z,1002.12
2016-06-18T04:37:49.488Z,1002.15
2016-06-18T04:38:49.508Z,1002.14
2016-06-18T04:39:49.527Z,1002.16
2016-06-18T04:40:49.561Z,1002.16
2016-06-18T04:41:49.580Z,1002.17
2016-06-18T04:42:49.600Z,1002.16
2016-06-18T04:43:49.618Z,1002.15
2016-06-18T04:44:49.654Z,1002.18
2016-06-18T04:45:49.673Z,1002.11
2016-06-18T04:46:49.692Z,1002.18
2016-06-18T04:47:49.710Z,1002.14
2016-06-18T04:48:49.746Z,1002.19
2016-06-18T04:49:49.764Z,1002.2
2016-06-18T04:50:49.784Z,1002.22
2016-06-18T04:51:49.818Z,1002.23
2016-06-18T04:52:49.838Z,1002.26
2016-06-18T04:53:49.856Z,1002.25
2016-06-18T04:54:49.875Z,1002.26
2016-06-18T04:55:49.910Z,1002.24
2016-06-18T04:56:49.929Z,1002.27
2016-06-18T04:57:49.949Z,1002.26
2016-06-18T04:58:49.983Z,1002.26
2016-06-18T04:59:50.002Z,1002.28
2016-06-18T05:00:50.021Z,1002.27
2016-06-18T05:01:50.040Z,1002.27
2016-06-18T05:02:50.075Z,1002.28
2016-06-18T05:03:50.095Z,1002.24
2016-06-18T05:04:50.113Z,1002.29
2016-06-18T05:05:50.148Z,1002.3
2016-06-18T05:06:50.167Z,1002.33
2016-06-18T05:07:50.186Z,1002.29
2016-06-18T05:08:50.205Z,1002.28
2016-06-18T05:09:50.225Z,1002.3
2016-06-18T05:10:50.258Z,1002.28
2016-06-18T05:11:50.278Z,1002.26
2016-06-18T05:12:50.313Z,1002.26
2016-06-18T05:13:50.333Z,1002.25
2016-06-18T05:14:50.350Z,1002.26
2016-06-18T05:15:50.370Z,1002.25
2016-06-18T05:16:50.404Z,1002.29
2016-06-18T05:17:50.424Z,1002.3
2016-06-18T05:18:50.443Z,1002.32
2016-06-18T05:19:50.461Z,1002.34
2016-06-18T05:20:50.496Z,1002.32
2016-06-18T05:21:50.516Z,1002.34
2016-06-18T05:22:50.535Z,1002.35
2016-06-18T05:23:50.554Z,1002.35
2016-06-18T05:24:50.589Z,1002.35
2016-06-18T05:25:50.685Z,1002.35
2016-06-18T05:26:50.627Z,1002.35
2016-06-18T05:27:50.662Z,1002.34
2016-06-18T05:28:50.712Z,1002.37
2016-06-18T05:29:50.699Z,1002.36
2016-06-18T05:30:50.719Z,1002.39
2016-06-18T05:31:50.753Z,1002.3
2016-06-18T05:32:50.773Z,1002.36
2016-06-18T05:33:50.792Z,1002.37
2016-06-18T05:34:50.826Z,1002.42
2016-06-18T05:35:50.845Z,1002.38
2016-06-18T05:36:50.880Z,1002.44
2016-06-18T05:37:50.883Z,1002.41
2016-06-18T05:38:50.918Z,1002.37
2016-06-18T05:39:50.937Z,1002.4
2016-06-18T05:40:50.973Z,1002.38
2016-06-18T05:41:50.976Z,1002.37
2016-06-18T05:42:51.011Z,1002.39
2016-06-18T05:43:51.029Z,1002.4
2016-06-18T05:44:51.048Z,1002.38
2016-06-18T05:45:51.083Z,1002.43
2016-06-18T05:46:51.102Z,1002.46
2016-06-18T05:47:51.122Z,1002.45
2016-06-18T05:48:51.156Z,1002.47
2016-06-18T05:49:51.175Z,1002.48
2016-06-18T05:50:51.194Z,1002.45
2016-06-18T05:51:51.214Z,1002.48
2016-06-18T05:52:51.248Z,1002.48
2016-06-18T05:53:51.267Z,1002.5
2016-06-18T05:54:51.286Z,1002.46
2016-06-18T05:55:51.320Z,1002.5
2016-06-18T05:56:51.340Z,1002.5
2016-06-18T05:57:51.360Z,1002.53
2016-06-18T05:58:51.378Z,1002.53
2016-06-18T05:59:51.413Z,1002.5
2016-06-18T06:00:51.432Z,1002.46
2016-06-18T06:01:51.451Z,1002.47
2016-06-18T06:02:51.486Z,1002.46
2016-06-18T06:03:51.505Z,1002.44
2016-06-18T06:04:51.539Z,1002.47
2016-06-18T06:05:51.559Z,1002.49
2016-06-18T06:06:51.578Z,1002.49
2016-06-18T06:07:51.597Z,1002.43
2016-06-18T06:08:51.615Z,1002.48
2016-06-18T06:09:51.651Z,1002.45
2016-06-18T06:10:51.669Z,1002.46
2016-06-18T06:11:51.689Z,1002.43
2016-06-18T06:12:51.708Z,1002.42
2016-06-18T06:13:51.742Z,1002.4
2016-06-18T06:14:51.761Z,1002.4
2016-06-18T06:15:51.780Z,1002.42
2016-06-18T06:16:51.815Z,1002.43
2016-06-18T06:17:51.835Z,1002.42
2016-06-18T06:18:51.869Z,1002.4
2016-06-18T06:19:51.888Z,1002.4
2016-06-18T06:20:51.907Z,1002.43
2016-06-18T06:21:51.926Z,1002.43
2016-06-18T06:22:51.945Z,1002.41
2016-06-18T06:23:51.980Z,1002.4
2016-06-18T06:24:51.999Z,1002.41
2016-06-18T06:25:52.019Z,1002.44
2016-06-18T06:26:52.053Z,1002.46
2016-06-18T06:27:52.073Z,1002.4
2016-06-18T06:28:52.094Z,1002.46
2016-06-18T06:29:52.112Z,1002.46
2016-06-18T06:30:52.149Z,1002.5
2016-06-18T06:31:52.168Z,1002.51
2016-06-18T06:32:52.188Z,1002.48
2016-06-18T06:33:52.223Z,1002.48
2016-06-18T06:34:52.242Z,1002.48
2016-06-18T06:35:52.261Z,1002.48
2016-06-18T06:36:52.281Z,1002.46
2016-06-18T06:37:52.315Z,1002.5
2016-06-18T06:38:52.334Z,1002.53
2016-06-18T06:39:52.353Z,1002.5
2016-06-18T06:40:52.389Z,1002.53
2016-06-18T06:41:52.408Z,1002.52
2016-06-18T06:42:52.426Z,1002.49
2016-06-18T06:43:52.446Z,1002.49
2016-06-18T06:44:52.480Z,1002.5
2016-06-18T06:45:52.499Z,1002.49
2016-06-18T06:46:52.519Z,1002.52
2016-06-18T06:47:52.553Z,1002.47
2016-06-18T06:48:52.572Z,1002.47
2016-06-18T06:49:52.592Z,1002.5
2016-06-18T06:50:52.627Z,1002.44
2016-06-18T06:51:52.645Z,1002.5
2016-06-18T06:52:52.665Z,1002.51
2016-06-18T06:53:52.698Z,1002.53
2016-06-18T06:54:52.718Z,1002.54
2016-06-18T06:55:52.738Z,1002.51
2016-06-18T06:56:52.756Z,1002.56
2016-06-18T06:57:52.791Z,1002.58
2016-06-18T06:58:52.810Z,1002.6
2016-06-18T06:59:52.829Z,1002.59
2016-06-18T07:00:52.864Z,1002.61
2016-06-18T07:01:52.884Z,1002.63
2016-06-18T07:02:52.902Z,1002.66
2016-06-18T07:03:52.937Z,1002.63
2016-06-18T07:04:52.955Z,1002.66
2016-06-18T07:05:52.975Z,1002.7
2016-06-18T07:06:52.994Z,1002.63
2016-06-18T07:07:53.029Z,1002.63
2016-06-18T07:08:53.048Z,1002.63
2016-06-18T07:09:53.067Z,1002.65
2016-06-18T07:10:53.101Z,1002.62
2016-06-18T07:11:53.121Z,1002.59
2016-06-18T07:12:53.140Z,1002.64
2016-06-18T07:13:53.175Z,1002.64
2016-06-18T07:14:53.194Z,1002.63
2016-06-18T07:15:53.212Z,1002.7
2016-06-18T07:16:53.247Z,1002.66
2016-06-18T07:17:53.266Z,1002.69
2016-06-18T07:18:53.285Z,1002.65
2016-06-18T07:19:53.305Z,1002.68
2016-06-18T07:20:53.340Z,1002.67
2016-06-18T07:21:53.358Z,1002.71
2016-06-18T07:22:53.377Z,1002.71
2016-06-18T07:23:53.412Z,1002.77
2016-06-18T07:24:53.431Z,1002.76
2016-06-18T07:25:53.887Z,1002.77
2016-06-18T07:26:53.485Z,1002.75
2016-06-18T07:27:53.505Z,1002.75
2016-06-18T07:28:53.522Z,1002.77
2016-06-18T07:29:53.558Z,1002.77
2016-06-18T07:30:53.576Z,1002.82
2016-06-18T07:31:53.596Z,1002.81
2016-06-18T07:32:53.631Z,1002.83
2016-06-18T07:33:53.650Z,1002.83
2016-06-18T07:34:53.685Z,1002.88
2016-06-18T07:35:53.704Z,1002.85
2016-06-18T07:36:53.833Z,1002.88
2016-06-18T07:37:53.742Z,1002.92
2016-06-18T07:38:53.886Z,1002.93
2016-06-18T07:39:53.890Z,1002.91
2016-06-18T07:40:53.877Z,1002.95
2016-06-18T07:41:53.897Z,1002.86
2016-06-18T07:42:53.900Z,1002.89
2016-06-18T07:43:53.903Z,1002.95
2016-06-18T07:44:53.922Z,1002.92
2016-06-18T07:45:54.050Z,1002.9
2016-06-18T07:46:54.070Z,1002.94
2016-06-18T07:47:54.074Z,1002.88
2016-06-18T07:48:54.092Z,1002.88
2016-06-18T07:49:54.111Z,1002.93
2016-06-18T07:50:54.115Z,1002.91
2016-06-18T07:51:54.166Z,1002.88
2016-06-18T07:52:54.168Z,1002.89
2016-06-18T07:53:54.172Z,1002.91
2016-06-18T07:54:54.191Z,1002.9
2016-06-18T07:55:54.195Z,1002.9
2016-06-18T07:56:54.213Z,1002.89
2016-06-18T07:57:54.233Z,1002.9
2016-06-18T07:58:54.252Z,1002.9
2016-06-18T07:59:54.287Z,1002.85
2016-06-18T08:00:54.305Z,1002.92
2016-06-18T08:01:54.325Z,1002.91
2016-06-18T08:02:54.359Z,1002.94
2016-06-18T08:03:54.379Z,1002.89
2016-06-18T08:04:54.413Z,1003.02
2016-06-18T08:05:54.433Z,1002.96
2016-06-18T08:06:54.451Z,1003.03
2016-06-18T08:07:54.470Z,1003.01
2016-06-18T08:08:54.505Z,1003.02
2016-06-18T08:09:54.524Z,1002.97
2016-06-18T08:10:54.559Z,1002.96
2016-06-18T08:11:54.578Z,1002.95
2016-06-18T08:12:54.597Z,1003
2016-06-18T08:13:54.633Z,1003
2016-06-18T08:14:54.650Z,1002.92
2016-06-18T08:15:54.671Z,1002.98
2016-06-18T08:16:54.704Z,1002.97
2016-06-18T08:17:54.724Z,1002.98
2016-06-18T08:18:54.758Z,1003.04
2016-06-18T08:19:54.794Z,1002.97
2016-06-18T08:20:54.797Z,1003.09
2016-06-18T08:21:54.831Z,1002.98
2016-06-18T08:22:54.850Z,1003.01
2016-06-18T08:23:54.885Z,1003.04
2016-06-18T08:24:54.904Z,1002.97
2016-06-18T08:25:54.939Z,1003.05
2016-06-18T08:26:54.959Z,1003.02
2016-06-18T08:27:54.977Z,1003
2016-06-18T08:28:55.012Z,1003
2016-06-18T08:29:55.030Z,1002.99
2016-06-18T08:30:55.050Z,1002.99
2016-06-18T08:31:55.085Z,1002.98
2016-06-18T08:32:55.104Z,1002.97
2016-06-18T08:33:55.139Z,1002.97
2016-06-18T08:34:55.158Z,1003.04
2016-06-18T08:35:55.192Z,1003.01
2016-06-18T08:36:55.212Z,1002.97
2016-06-18T08:37:55.230Z,1003.05
2016-06-18T08:38:55.265Z,1002.99
2016-06-18T08:39:55.284Z,1003.02
2016-06-18T08:40:55.319Z,1003.01
2016-06-18T08:41:55.338Z,1002.97
2016-06-18T08:42:55.357Z,1002.96
2016-06-18T08:43:55.394Z,1003.01
2016-06-18T08:47:04.594Z,1002.97
2016-06-18T08:47:14.297Z,1003.02
2016-06-18T08:47:31.469Z,1003.03
2016-06-18T08:48:31.507Z,1003.09
2016-06-18T08:49:31.529Z,1003.02
2016-06-18T08:50:31.565Z,1003.03
2016-06-18T08:51:31.585Z,1003.09
2016-06-18T08:52:31.622Z,1003.1
2016-06-18T08:53:31.642Z,1003.15
2016-06-18T08:54:31.677Z,1003.13
2016-06-18T08:55:31.697Z,1003.18
2016-06-18T08:56:31.731Z,1003.1
2016-06-18T08:57:31.751Z,1003.18
2016-06-18T08:58:31.786Z,1003.16
2016-06-18T08:59:31.806Z,1003.15
2016-06-18T09:00:31.825Z,1003.15
2016-06-18T09:01:31.861Z,1003.25
2016-06-18T09:02:31.880Z,1003.2
2016-06-18T09:03:31.914Z,1003.15
2016-06-18T09:04:31.933Z,1003.17
2016-06-18T09:05:31.969Z,1003.14
2016-06-18T09:06:31.987Z,1003.15
2016-06-18T09:07:32.021Z,1003.16
2016-06-18T09:08:32.041Z,1003.12
2016-06-18T09:09:32.076Z,1003.19
2016-06-18T09:10:32.095Z,1003.14
2016-06-18T09:11:32.129Z,1003.19
2016-06-18T09:12:32.149Z,1003.2
2016-06-18T09:13:32.184Z,1003.18
2016-06-18T09:14:32.218Z,1003.16
2016-06-18T09:15:32.237Z,1003.19
2016-06-18T09:16:32.257Z,1003.2
2016-06-18T09:17:32.292Z,1003.21
2016-06-18T09:21:09.022Z,1003.34
2016-06-18T09:22:09.041Z,1003.33
2016-06-18T09:23:09.076Z,1003.26
2016-06-18T09:24:09.096Z,1003.28
2016-06-18T09:25:09.114Z,1003.25
2016-06-18T09:26:09.148Z,1003.24
2016-06-18T09:27:09.184Z,1003.22
2016-06-18T09:28:09.203Z,1003.2
2016-06-18T09:29:09.238Z,1003.22
2016-06-18T09:31:09.276Z,1003.21
2016-06-18T09:32:09.311Z,1003.24
2016-06-18T09:33:09.330Z,1003.18
2016-06-18T09:34:09.364Z,1003.24
2016-06-18T09:35:09.384Z,1003.33
2016-06-18T09:36:09.434Z,1003.2
2016-06-18T09:37:09.452Z,1003.25
2016-06-18T09:38:09.472Z,1003.17
2016-06-18T09:39:09.507Z,1003.19
2016-06-18T09:40:09.526Z,1003.19
2016-06-18T09:41:09.561Z,1003.15
2016-06-18T09:42:09.595Z,1003.16
2016-06-18T09:43:09.615Z,1003.23
2016-06-18T09:44:09.632Z,1003.15
2016-06-18T09:45:09.668Z,1003.25
2016-06-18T09:46:09.703Z,1003.25
2016-06-18T09:47:09.722Z,1003.17
2016-06-18T09:48:09.756Z,1003.22
2016-06-18T09:49:09.775Z,1003.23
2016-06-18T09:50:09.810Z,1003.18
2016-06-18T09:51:09.845Z,1003.17
2016-06-18T09:52:09.880Z,1003.21
2016-06-18T09:53:09.914Z,1003.19
2016-06-18T09:54:09.933Z,1003.23
2016-06-18T09:55:09.953Z,1003.29
2016-06-18T09:56:09.987Z,1003.24
2016-06-18T09:57:10.007Z,1003.3
2016-06-18T09:58:10.041Z,1003.32
2016-06-18T09:59:10.075Z,1003.25
2016-06-18T10:00:10.095Z,1003.24
2016-06-18T10:01:10.129Z,1003.17
2016-06-18T10:02:10.149Z,1003.16
2016-06-18T10:03:10.183Z,1003.19
2016-06-18T10:04:10.218Z,1003.2
2016-06-18T10:05:10.252Z,1003.28
2016-06-18T10:06:10.272Z,1003.27
2016-06-18T10:07:10.306Z,1003.25
2016-06-18T10:08:10.326Z,1003.2
2016-06-18T10:09:10.361Z,1003.2
2016-06-18T10:10:10.395Z,1003.21
2016-06-18T10:11:10.414Z,1003.24
2016-06-18T10:12:10.449Z,1003.25
2016-06-18T10:13:10.483Z,1003.18
2016-06-18T10:14:10.502Z,1003.19
2016-06-18T10:15:10.536Z,1003.11
2016-06-18T10:16:10.572Z,1003.11
2016-06-18T10:17:10.591Z,1003.18
2016-06-18T10:18:10.625Z,1003.15
2016-06-18T10:19:10.661Z,1003.13
2016-06-18T10:20:10.680Z,1003.12
2016-06-18T10:21:10.715Z,1003.13
2016-06-18T10:22:10.749Z,1003.13
2016-06-18T10:23:10.784Z,1003.09
2016-06-18T10:24:10.803Z,1003.13
2016-06-18T10:25:10.837Z,1003.13
2016-06-18T10:26:10.871Z,1003.15
2016-06-18T10:27:10.891Z,1003.12
2016-06-18T10:28:10.925Z,1003.13
2016-06-18T10:29:10.945Z,1003.09
2016-06-18T10:30:10.979Z,1003.13
2016-06-18T10:31:11.014Z,1003.12
2016-06-18T10:32:11.033Z,1003.18
2016-06-18T10:33:11.068Z,1003.08
2016-06-18T10:34:11.103Z,1003.12
2016-06-18T10:35:11.138Z,1003.13
2016-06-18T10:36:11.156Z,1003.12
2016-06-18T10:37:11.191Z,1003.12
2016-06-18T10:38:11.226Z,1003.11
2016-06-18T10:39:11.246Z,1003.1
2016-06-18T10:40:11.280Z,1003.11
2016-06-18T10:41:11.314Z,1003.14
2016-06-18T10:42:11.334Z,1003.08
2016-06-18T10:43:11.368Z,1003.1
2016-06-18T10:44:11.402Z,1003.05
2016-06-18T10:45:11.438Z,1003.11
2016-06-18T10:46:11.457Z,1003.05
2016-06-18T10:47:11.491Z,1003.13
2016-06-18T10:48:11.526Z,1003.17
2016-06-18T10:49:11.545Z,1003.16
2016-06-18T10:50:11.580Z,1003.16
2016-06-18T10:51:11.646Z,1003.24
2016-06-18T10:52:11.650Z,1003.21
2016-06-18T10:53:11.731Z,1003.18
2016-06-18T10:54:11.704Z,1003.2
2016-06-18T10:55:11.738Z,1003.16
2016-06-18T10:56:11.772Z,1003.16
2016-06-18T10:57:11.792Z,1003.17
2016-06-18T10:58:11.826Z,1003.17
2016-06-18T10:59:11.861Z,1003.16
2016-06-18T11:00:11.897Z,1003.18
2016-06-18T11:01:11.915Z,1003.1
2016-06-18T11:02:11.950Z,1003.13
2016-06-18T11:03:11.985Z,1003.16
2016-06-18T11:04:12.019Z,1003.14
2016-06-18T11:05:12.039Z,1003.15
2016-06-18T11:06:12.073Z,1003.11
2016-06-18T11:07:12.108Z,1003.08
2016-06-18T11:08:12.142Z,1003.08
2016-06-18T11:09:12.162Z,1003.08
2016-06-18T11:10:12.196Z,1003.06
2016-06-18T11:11:12.231Z,1003.04
2016-06-18T11:12:12.266Z,1003.04
2016-06-18T11:13:12.284Z,1003.07
2016-06-18T11:14:12.319Z,1003.06
2016-06-18T11:15:12.354Z,1003.02
2016-06-18T11:16:12.388Z,1003.03
2016-06-18T11:17:12.423Z,1003.05
2016-06-18T11:18:12.459Z,1003
2016-06-18T11:19:12.477Z,1003.05
2016-06-18T11:20:12.558Z,1003.03
2016-06-18T11:21:12.547Z,1003.04
2016-06-18T11:22:12.582Z,1003.04
2016-06-18T11:23:12.600Z,1003.04
2016-06-18T11:24:12.636Z,1003
2016-06-18T11:25:12.668Z,1003.01
2016-06-18T11:26:12.703Z,1003.01
2016-06-18T11:28:25.678Z,1003.01
2016-06-18T11:29:25.713Z,1003.01
2016-06-18T11:30:25.747Z,1003.01
2016-06-18T11:31:25.783Z,1002.98
2016-06-18T11:32:25.802Z,1003
2016-06-18T11:33:25.837Z,1002.94
2016-06-18T11:34:25.871Z,1002.89
2016-06-18T11:41:27.698Z,1002.9
2016-06-18T11:42:27.732Z,1002.85
2016-06-18T11:43:27.846Z,1002.88
2016-06-18T11:44:27.881Z,1002.84
2016-06-18T11:45:27.900Z,1002.87
2016-06-18T11:46:27.887Z,1002.82
2016-06-18T11:47:27.908Z,1002.83
2016-06-18T11:48:28.035Z,1002.88
2016-06-18T11:49:37.695Z,1002.87
2016-06-18T11:50:28.088Z,1002.89
2016-06-18T11:51:28.092Z,1002.92
2016-06-18T11:52:28.096Z,1002.9
2016-06-18T11:53:28.115Z,1002.93
2016-06-18T11:54:28.119Z,1002.89
2016-06-18T11:55:28.247Z,1002.93
2016-06-18T11:56:28.173Z,1002.95
2016-06-18T11:57:28.207Z,1003.02
2016-06-18T11:58:28.242Z,1003.04
2016-06-18T11:59:28.279Z,1003.06
2016-06-18T12:00:28.314Z,1003.05
2016-06-18T12:01:28.350Z,1003.06
2016-06-18T12:02:28.385Z,1003.08
2016-06-18T12:03:28.405Z,1003.05
2016-06-18T12:04:28.441Z,1003.04
2016-06-18T12:05:28.476Z,1003.02
2016-06-18T12:06:28.511Z,1003.01
2016-06-18T12:07:28.546Z,1003.01
2016-06-18T12:08:28.581Z,1002.99
2016-06-18T12:09:28.600Z,1003.06
2016-06-18T12:10:28.635Z,1003.07
2016-06-18T12:11:28.669Z,1003.05
2016-06-18T12:12:28.705Z,1003.03
2016-06-18T12:13:28.739Z,1003.05
2016-06-18T12:14:28.773Z,1003.04
2016-06-18T12:15:28.808Z,1003.09
2016-06-18T12:16:28.844Z,1003.1
2016-06-18T12:17:28.862Z,1003.13
2016-06-18T12:18:28.899Z,1003.09
2016-06-18T12:19:28.933Z,1003.14
2016-06-18T12:20:28.968Z,1003.09